sensor_id;sensor_type;location;lat;lon;timestamp;P1;durP1;ratioP1;P2;durP2;ratioP2
45254;SDS011;30989;52.078;21.014;2023-09-08T00:00:46;9.18;;;4.15;;
45254;SDS011;30989;52.078;21.014;2023-09-08T00:03:14;10.75;;;5.45;;
45254;SDS011;30989;52.078;21.014;2023-09-08T00:05:40;12.68;;;4.80;;
45254;SDS011;30989;52.078;21.014;2023-09-08T00:08:06;10.82;;;4.53;;
45254;SDS011;30989;52.078;21.014;2023-09-08T00:10:32;12.90;;;4.55;;
45254;SDS011;30989;52.078;21.014;2023-09-08T00:12:57;9.20;;;4.10;;
45254;SDS011;30989;52.078;21.014;2023-09-08T00:15:23;8.90;;;3.80;;
45254;SDS011;30989;52.078;21.014;2023-09-08T00:17:48;6.50;;;4.03;;
45254;SDS011;30989;52.078;21.014;2023-09-08T00:20:13;11.18;;;4.63;;
45254;SDS011;30989;52.078;21.014;2023-09-08T00:22:40;8.52;;;3.90;;
45254;SDS011;30989;52.078;21.014;2023-09-08T00:25:05;10.43;;;4.18;;
45254;SDS011;30989;52.078;21.014;2023-09-08T00:27:31;9.60;;;4.65;;
45254;SDS011;30989;52.078;21.014;2023-09-08T00:29:57;10.82;;;3.72;;
45254;SDS011;30989;52.078;21.014;2023-09-08T00:32:22;11.48;;;5.15;;
45254;SDS011;30989;52.078;21.014;2023-09-08T00:34:48;9.45;;;4.43;;
45254;SDS011;30989;52.078;21.014;2023-09-08T00:37:13;13.25;;;4.80;;
45254;SDS011;30989;52.078;21.014;2023-09-08T00:39:39;8.73;;;4.45;;
45254;SDS011;30989;52.078;21.014;2023-09-08T00:42:05;9.70;;;4.68;;
45254;SDS011;30989;52.078;21.014;2023-09-08T00:44:32;15.57;;;4.47;;
45254;SDS011;30989;52.078;21.014;2023-09-08T00:46:57;6.85;;;4.13;;
45254;SDS011;30989;52.078;21.014;2023-09-08T00:49:23;10.55;;;4.38;;
45254;SDS011;30989;52.078;21.014;2023-09-08T00:51:49;9.25;;;4.07;;
45254;SDS011;30989;52.078;21.014;2023-09-08T00:54:14;8.00;;;3.85;;
45254;SDS011;30989;52.078;21.014;2023-09-08T00:56:40;11.18;;;3.67;;
45254;SDS011;30989;52.078;21.014;2023-09-08T00:59:07;10.18;;;4.22;;
45254;SDS011;30989;52.078;21.014;2023-09-08T01:01:32;7.90;;;4.45;;
45254;SDS011;30989;52.078;21.014;2023-09-08T01:04:00;8.23;;;4.80;;
45254;SDS011;30989;52.078;21.014;2023-09-08T01:06:26;9.38;;;4.28;;
45254;SDS011;30989;52.078;21.014;2023-09-08T01:08:52;8.80;;;4.60;;
45254;SDS011;30989;52.078;21.014;2023-09-08T01:11:19;8.43;;;4.03;;
45254;SDS011;30989;52.078;21.014;2023-09-08T01:13:45;9.85;;;4.15;;
45254;SDS011;30989;52.078;21.014;2023-09-08T01:16:11;8.05;;;3.80;;
45254;SDS011;30989;52.078;21.014;2023-09-08T01:18:36;8.80;;;4.47;;
45254;SDS011;30989;52.078;21.014;2023-09-08T01:21:11;7.43;;;4.55;;
45254;SDS011;30989;52.078;21.014;2023-09-08T01:26:54;8.73;;;4.13;;
45254;SDS011;30989;52.078;21.014;2023-09-08T01:29:21;16.23;;;4.53;;
45254;SDS011;30989;52.078;21.014;2023-09-08T01:31:49;7.18;;;4.07;;
45254;SDS011;30989;52.078;21.014;2023-09-08T01:34:15;8.77;;;5.18;;
45254;SDS011;30989;52.078;21.014;2023-09-08T01:36:41;9.02;;;4.88;;
45254;SDS011;30989;52.078;21.014;2023-09-08T01:39:07;10.20;;;5.13;;
45254;SDS011;30989;52.078;21.014;2023-09-08T01:41:32;10.82;;;4.53;;
45254;SDS011;30989;52.078;21.014;2023-09-08T01:43:58;7.40;;;4.32;;
45254;SDS011;30989;52.078;21.014;2023-09-08T01:46:24;9.50;;;4.78;;
45254;SDS011;30989;52.078;21.014;2023-09-08T01:48:50;11.65;;;5.22;;
45254;SDS011;30989;52.078;21.014;2023-09-08T01:51:15;10.50;;;5.20;;
45254;SDS011;30989;52.078;21.014;2023-09-08T01:53:41;11.32;;;5.07;;
45254;SDS011;30989;52.078;21.014;2023-09-08T01:56:06;20.50;;;5.45;;
45254;SDS011;30989;52.078;21.014;2023-09-08T01:58:33;14.65;;;5.20;;
45254;SDS011;30989;52.078;21.014;2023-09-08T02:00:59;9.43;;;5.10;;
45254;SDS011;30989;52.078;21.014;2023-09-08T02:03:30;12.70;;;5.43;;
45254;SDS011;30989;52.078;21.014;2023-09-08T02:05:56;8.50;;;4.90;;
45254;SDS011;30989;52.078;21.014;2023-09-08T02:08:22;10.75;;;4.53;;
45254;SDS011;30989;52.078;21.014;2023-09-08T02:10:47;7.32;;;4.45;;
45254;SDS011;30989;52.078;21.014;2023-09-08T02:13:13;7.57;;;4.57;;
45254;SDS011;30989;52.078;21.014;2023-09-08T02:15:38;8.60;;;5.20;;
45254;SDS011;30989;52.078;21.014;2023-09-08T02:18:04;11.88;;;5.05;;
45254;SDS011;30989;52.078;21.014;2023-09-08T02:20:29;9.85;;;6.03;;
45254;SDS011;30989;52.078;21.014;2023-09-08T02:22:55;14.68;;;6.30;;
45254;SDS011;30989;52.078;21.014;2023-09-08T02:25:20;11.73;;;5.57;;
45254;SDS011;30989;52.078;21.014;2023-09-08T02:27:48;10.27;;;5.53;;
45254;SDS011;30989;52.078;21.014;2023-09-08T02:30:14;10.00;;;4.95;;
45254;SDS011;30989;52.078;21.014;2023-09-08T02:32:40;8.70;;;4.60;;
45254;SDS011;30989;52.078;21.014;2023-09-08T02:35:08;9.48;;;5.47;;
45254;SDS011;30989;52.078;21.014;2023-09-08T02:37:34;8.77;;;4.68;;
45254;SDS011;30989;52.078;21.014;2023-09-08T02:40:00;10.07;;;5.50;;
45254;SDS011;30989;52.078;21.014;2023-09-08T02:42:28;7.72;;;4.38;;
45254;SDS011;30989;52.078;21.014;2023-09-08T02:44:55;8.43;;;4.75;;
45254;SDS011;30989;52.078;21.014;2023-09-08T02:47:21;8.15;;;4.55;;
45254;SDS011;30989;52.078;21.014;2023-09-08T02:49:46;10.00;;;5.00;;
45254;SDS011;30989;52.078;21.014;2023-09-08T02:52:11;10.00;;;5.80;;
45254;SDS011;30989;52.078;21.014;2023-09-08T02:54:37;9.95;;;4.45;;
45254;SDS011;30989;52.078;21.014;2023-09-08T02:57:02;9.45;;;4.50;;
45254;SDS011;30989;52.078;21.014;2023-09-08T02:59:28;9.93;;;4.70;;
45254;SDS011;30989;52.078;21.014;2023-09-08T03:01:53;10.15;;;5.22;;
45254;SDS011;30989;52.078;21.014;2023-09-08T03:04:22;11.57;;;4.93;;
45254;SDS011;30989;52.078;21.014;2023-09-08T03:06:47;11.75;;;5.60;;
45254;SDS011;30989;52.078;21.014;2023-09-08T03:09:13;12.95;;;5.85;;
45254;SDS011;30989;52.078;21.014;2023-09-08T03:11:39;10.10;;;5.50;;
45254;SDS011;30989;52.078;21.014;2023-09-08T03:14:06;9.10;;;4.93;;
45254;SDS011;30989;52.078;21.014;2023-09-08T03:16:31;9.02;;;5.47;;
45254;SDS011;30989;52.078;21.014;2023-09-08T03:18:57;11.18;;;4.53;;
45254;SDS011;30989;52.078;21.014;2023-09-08T03:21:23;8.07;;;4.32;;
45254;SDS011;30989;52.078;21.014;2023-09-08T03:23:49;8.57;;;5.43;;
45254;SDS011;30989;52.078;21.014;2023-09-08T03:26:15;10.75;;;5.53;;
45254;SDS011;30989;52.078;21.014;2023-09-08T03:28:41;15.65;;;8.50;;
45254;SDS011;30989;52.078;21.014;2023-09-08T03:31:07;10.50;;;5.20;;
45254;SDS011;30989;52.078;21.014;2023-09-08T03:33:34;12.25;;;5.72;;
45254;SDS011;30989;52.078;21.014;2023-09-08T03:36:00;12.63;;;5.55;;
45254;SDS011;30989;52.078;21.014;2023-09-08T03:38:27;14.07;;;5.25;;
45254;SDS011;30989;52.078;21.014;2023-09-08T03:40:53;11.73;;;4.72;;
45254;SDS011;30989;52.078;21.014;2023-09-08T03:43:18;15.55;;;6.45;;
45254;SDS011;30989;52.078;21.014;2023-09-08T03:45:44;12.27;;;5.45;;
45254;SDS011;30989;52.078;21.014;2023-09-08T03:48:10;11.85;;;6.03;;
45254;SDS011;30989;52.078;21.014;2023-09-08T03:50:35;18.63;;;7.50;;
45254;SDS011;30989;52.078;21.014;2023-09-08T03:53:01;9.60;;;5.53;;
45254;SDS011;30989;52.078;21.014;2023-09-08T03:55:27;8.85;;;5.43;;
45254;SDS011;30989;52.078;21.014;2023-09-08T03:57:52;13.80;;;5.97;;
45254;SDS011;30989;52.078;21.014;2023-09-08T04:00:19;8.93;;;4.72;;
45254;SDS011;30989;52.078;21.014;2023-09-08T04:02:48;11.85;;;5.80;;
45254;SDS011;30989;52.078;21.014;2023-09-08T04:05:14;14.35;;;5.72;;
45254;SDS011;30989;52.078;21.014;2023-09-08T04:07:41;10.38;;;6.07;;
45254;SDS011;30989;52.078;21.014;2023-09-08T04:10:06;10.63;;;5.57;;
45254;SDS011;30989;52.078;21.014;2023-09-08T04:12:32;8.27;;;5.18;;
45254;SDS011;30989;52.078;21.014;2023-09-08T04:14:57;14.32;;;6.88;;
45254;SDS011;30989;52.078;21.014;2023-09-08T04:17:23;12.27;;;5.70;;
45254;SDS011;30989;52.078;21.014;2023-09-08T04:19:48;10.07;;;6.05;;
45254;SDS011;30989;52.078;21.014;2023-09-08T04:22:14;15.27;;;6.03;;
45254;SDS011;30989;52.078;21.014;2023-09-08T04:24:39;8.48;;;5.22;;
45254;SDS011;30989;52.078;21.014;2023-09-08T04:27:05;13.10;;;6.70;;
45254;SDS011;30989;52.078;21.014;2023-09-08T04:29:32;19.05;;;8.02;;
45254;SDS011;30989;52.078;21.014;2023-09-08T04:31:57;11.02;;;5.75;;
45254;SDS011;30989;52.078;21.014;2023-09-08T04:34:23;12.95;;;5.25;;
45254;SDS011;30989;52.078;21.014;2023-09-08T04:36:48;12.40;;;5.90;;
45254;SDS011;30989;52.078;21.014;2023-09-08T04:39:13;13.20;;;6.00;;
45254;SDS011;30989;52.078;21.014;2023-09-08T04:41:40;9.13;;;4.93;;
45254;SDS011;30989;52.078;21.014;2023-09-08T04:44:06;14.20;;;6.40;;
45254;SDS011;30989;52.078;21.014;2023-09-08T04:46:31;10.85;;;5.80;;
45254;SDS011;30989;52.078;21.014;2023-09-08T04:48:57;9.35;;;5.60;;
45254;SDS011;30989;52.078;21.014;2023-09-08T04:51:23;15.93;;;7.05;;
45254;SDS011;30989;52.078;21.014;2023-09-08T04:53:49;11.80;;;5.80;;
45254;SDS011;30989;52.078;21.014;2023-09-08T04:56:15;12.07;;;5.93;;
45254;SDS011;30989;52.078;21.014;2023-09-08T04:58:41;11.00;;;5.50;;
45254;SDS011;30989;52.078;21.014;2023-09-08T05:01:07;12.30;;;5.30;;
45254;SDS011;30989;52.078;21.014;2023-09-08T05:03:32;12.50;;;5.43;;
45254;SDS011;30989;52.078;21.014;2023-09-08T05:05:58;13.70;;;5.93;;
45254;SDS011;30989;52.078;21.014;2023-09-08T05:08:26;11.30;;;5.07;;
45254;SDS011;30989;52.078;21.014;2023-09-08T05:10:52;9.60;;;5.20;;
45254;SDS011;30989;52.078;21.014;2023-09-08T05:13:17;10.02;;;5.25;;
45254;SDS011;30989;52.078;21.014;2023-09-08T05:15:42;11.85;;;5.93;;
45254;SDS011;30989;52.078;21.014;2023-09-08T05:18:09;9.30;;;5.72;;
45254;SDS011;30989;52.078;21.014;2023-09-08T05:20:35;10.73;;;5.28;;
45254;SDS011;30989;52.078;21.014;2023-09-08T05:23:00;10.77;;;5.80;;
45254;SDS011;30989;52.078;21.014;2023-09-08T05:25:26;9.15;;;4.88;;
45254;SDS011;30989;52.078;21.014;2023-09-08T05:27:51;10.10;;;6.25;;
45254;SDS011;30989;52.078;21.014;2023-09-08T05:30:17;11.27;;;6.30;;
45254;SDS011;30989;52.078;21.014;2023-09-08T05:32:42;10.13;;;5.88;;
45254;SDS011;30989;52.078;21.014;2023-09-08T05:35:08;14.07;;;5.47;;
45254;SDS011;30989;52.078;21.014;2023-09-08T05:37:34;9.18;;;5.60;;
45254;SDS011;30989;52.078;21.014;2023-09-08T05:39:59;10.68;;;5.82;;
45254;SDS011;30989;52.078;21.014;2023-09-08T05:42:24;10.65;;;5.78;;
45254;SDS011;30989;52.078;21.014;2023-09-08T05:44:50;10.18;;;5.80;;
45254;SDS011;30989;52.078;21.014;2023-09-08T05:47:16;11.55;;;5.38;;
45254;SDS011;30989;52.078;21.014;2023-09-08T05:49:43;12.93;;;6.18;;
45254;SDS011;30989;52.078;21.014;2023-09-08T05:52:08;9.02;;;5.25;;
45254;SDS011;30989;52.078;21.014;2023-09-08T05:54:35;14.25;;;6.05;;
45254;SDS011;30989;52.078;21.014;2023-09-08T05:57:01;11.70;;;6.18;;
45254;SDS011;30989;52.078;21.014;2023-09-08T05:59:26;12.50;;;5.57;;
45254;SDS011;30989;52.078;21.014;2023-09-08T06:01:52;12.18;;;6.72;;
45254;SDS011;30989;52.078;21.014;2023-09-08T06:04:17;12.98;;;6.00;;
45254;SDS011;30989;52.078;21.014;2023-09-08T06:06:43;10.85;;;5.72;;
45254;SDS011;30989;52.078;21.014;2023-09-08T06:09:08;10.55;;;5.53;;
45254;SDS011;30989;52.078;21.014;2023-09-08T06:11:35;8.73;;;5.28;;
45254;SDS011;30989;52.078;21.014;2023-09-08T06:14:02;8.65;;;4.80;;
45254;SDS011;30989;52.078;21.014;2023-09-08T06:16:32;10.52;;;5.72;;
45254;SDS011;30989;52.078;21.014;2023-09-08T06:18:58;9.55;;;5.35;;
45254;SDS011;30989;52.078;21.014;2023-09-08T06:21:24;9.27;;;5.07;;
45254;SDS011;30989;52.078;21.014;2023-09-08T06:23:50;13.15;;;5.63;;
45254;SDS011;30989;52.078;21.014;2023-09-08T06:26:15;11.82;;;5.72;;
45254;SDS011;30989;52.078;21.014;2023-09-08T06:28:41;9.40;;;5.72;;
45254;SDS011;30989;52.078;21.014;2023-09-08T06:31:08;9.57;;;5.20;;
45254;SDS011;30989;52.078;21.014;2023-09-08T06:33:36;8.27;;;5.18;;
45254;SDS011;30989;52.078;21.014;2023-09-08T06:36:01;10.07;;;6.05;;
45254;SDS011;30989;52.078;21.014;2023-09-08T06:38:27;14.20;;;6.20;;
45254;SDS011;30989;52.078;21.014;2023-09-08T06:40:57;11.88;;;5.43;;
45254;SDS011;30989;52.078;21.014;2023-09-08T06:43:22;10.07;;;5.63;;
45254;SDS011;30989;52.078;21.014;2023-09-08T06:45:57;10.32;;;4.80;;
45254;SDS011;30989;52.078;21.014;2023-09-08T06:48:23;16.02;;;6.85;;
45254;SDS011;30989;52.078;21.014;2023-09-08T06:50:48;13.00;;;5.97;;
45254;SDS011;30989;52.078;21.014;2023-09-08T06:53:19;10.25;;;4.75;;
45254;SDS011;30989;52.078;21.014;2023-09-08T06:55:45;9.45;;;5.47;;
45254;SDS011;30989;52.078;21.014;2023-09-08T06:58:10;11.10;;;5.22;;
45254;SDS011;30989;52.078;21.014;2023-09-08T07:00:37;10.13;;;5.55;;
45254;SDS011;30989;52.078;21.014;2023-09-08T07:03:03;12.10;;;4.85;;
45254;SDS011;30989;52.078;21.014;2023-09-08T07:05:28;12.07;;;5.07;;
45254;SDS011;30989;52.078;21.014;2023-09-08T07:07:54;32.50;;;13.80;;
45254;SDS011;30989;52.078;21.014;2023-09-08T07:10:19;9.07;;;5.53;;
45254;SDS011;30989;52.078;21.014;2023-09-08T07:12:46;14.15;;;6.05;;
45254;SDS011;30989;52.078;21.014;2023-09-08T07:15:13;10.98;;;5.40;;
45254;SDS011;30989;52.078;21.014;2023-09-08T07:17:40;28.60;;;16.35;;
45254;SDS011;30989;52.078;21.014;2023-09-08T07:20:05;10.65;;;5.07;;
45254;SDS011;30989;52.078;21.014;2023-09-08T07:22:31;11.02;;;4.70;;
45254;SDS011;30989;52.078;21.014;2023-09-08T07:24:57;8.88;;;5.25;;
45254;SDS011;30989;52.078;21.014;2023-09-08T07:27:22;8.35;;;5.03;;
45254;SDS011;30989;52.078;21.014;2023-09-08T07:29:48;9.30;;;4.72;;
45254;SDS011;30989;52.078;21.014;2023-09-08T07:32:15;9.65;;;4.43;;
45254;SDS011;30989;52.078;21.014;2023-09-08T07:34:41;10.52;;;5.60;;
45254;SDS011;30989;52.078;21.014;2023-09-08T07:37:07;11.82;;;5.97;;
45254;SDS011;30989;52.078;21.014;2023-09-08T07:39:32;10.00;;;4.97;;
45254;SDS011;30989;52.078;21.014;2023-09-08T07:41:58;11.15;;;5.25;;
45254;SDS011;30989;52.078;21.014;2023-09-08T07:44:24;9.82;;;3.78;;
45254;SDS011;30989;52.078;21.014;2023-09-08T07:46:49;13.48;;;4.68;;
45254;SDS011;30989;52.078;21.014;2023-09-08T07:49:16;10.27;;;4.95;;
45254;SDS011;30989;52.078;21.014;2023-09-08T07:51:45;7.95;;;4.75;;
45254;SDS011;30989;52.078;21.014;2023-09-08T07:54:11;9.90;;;4.63;;
45254;SDS011;30989;52.078;21.014;2023-09-08T07:56:36;13.43;;;5.10;;
45254;SDS011;30989;52.078;21.014;2023-09-08T07:59:02;10.48;;;5.25;;
45254;SDS011;30989;52.078;21.014;2023-09-08T08:01:27;9.10;;;4.68;;
45254;SDS011;30989;52.078;21.014;2023-09-08T08:03:53;15.95;;;6.72;;
45254;SDS011;30989;52.078;21.014;2023-09-08T08:06:18;7.72;;;4.63;;
45254;SDS011;30989;52.078;21.014;2023-09-08T08:08:44;8.25;;;4.72;;
45254;SDS011;30989;52.078;21.014;2023-09-08T08:11:10;12.48;;;4.50;;
45254;SDS011;30989;52.078;21.014;2023-09-08T08:13:37;12.85;;;7.20;;
45254;SDS011;30989;52.078;21.014;2023-09-08T08:16:02;11.55;;;4.90;;
45254;SDS011;30989;52.078;21.014;2023-09-08T08:18:28;9.40;;;4.75;;
45254;SDS011;30989;52.078;21.014;2023-09-08T08:20:53;10.55;;;4.43;;
45254;SDS011;30989;52.078;21.014;2023-09-08T08:23:19;7.35;;;3.95;;
45254;SDS011;30989;52.078;21.014;2023-09-08T08:25:44;8.00;;;3.92;;
45254;SDS011;30989;52.078;21.014;2023-09-08T08:28:09;11.68;;;4.68;;
45254;SDS011;30989;52.078;21.014;2023-09-08T08:30:35;12.40;;;4.30;;
45254;SDS011;30989;52.078;21.014;2023-09-08T08:33:01;8.43;;;4.38;;
45254;SDS011;30989;52.078;21.014;2023-09-08T08:35:27;7.10;;;4.22;;
45254;SDS011;30989;52.078;21.014;2023-09-08T08:37:52;7.60;;;4.40;;
45254;SDS011;30989;52.078;21.014;2023-09-08T08:40:17;7.55;;;3.72;;
45254;SDS011;30989;52.078;21.014;2023-09-08T08:42:43;8.40;;;4.75;;
45254;SDS011;30989;52.078;21.014;2023-09-08T08:45:09;14.65;;;4.18;;
45254;SDS011;30989;52.078;21.014;2023-09-08T08:47:36;8.60;;;4.57;;
45254;SDS011;30989;52.078;21.014;2023-09-08T08:50:02;7.25;;;4.20;;
45254;SDS011;30989;52.078;21.014;2023-09-08T08:52:29;7.82;;;4.35;;
45254;SDS011;30989;52.078;21.014;2023-09-08T08:54:55;6.53;;;3.80;;
45254;SDS011;30989;52.078;21.014;2023-09-08T08:57:21;8.90;;;4.05;;
45254;SDS011;30989;52.078;21.014;2023-09-08T08:59:48;7.07;;;3.25;;
45254;SDS011;30989;52.078;21.014;2023-09-08T09:02:16;8.10;;;4.13;;
45254;SDS011;30989;52.078;21.014;2023-09-08T09:04:43;5.85;;;3.33;;
45254;SDS011;30989;52.078;21.014;2023-09-08T09:07:09;7.82;;;3.90;;
45254;SDS011;30989;52.078;21.014;2023-09-08T09:09:35;7.95;;;4.13;;
45254;SDS011;30989;52.078;21.014;2023-09-08T09:12:01;7.60;;;4.05;;
45254;SDS011;30989;52.078;21.014;2023-09-08T09:14:28;7.32;;;3.78;;
45254;SDS011;30989;52.078;21.014;2023-09-08T09:16:58;8.77;;;2.88;;
45254;SDS011;30989;52.078;21.014;2023-09-08T09:19:23;5.45;;;3.25;;
45254;SDS011;30989;52.078;21.014;2023-09-08T09:21:56;8.93;;;3.65;;
45254;SDS011;30989;52.078;21.014;2023-09-08T09:24:33;7.05;;;3.88;;
45254;SDS011;30989;52.078;21.014;2023-09-08T09:27:04;10.77;;;3.38;;
45254;SDS011;30989;52.078;21.014;2023-09-08T09:29:30;6.85;;;3.10;;
45254;SDS011;30989;52.078;21.014;2023-09-08T09:32:03;7.07;;;3.60;;
45254;SDS011;30989;52.078;21.014;2023-09-08T09:34:31;7.28;;;3.55;;
45254;SDS011;30989;52.078;21.014;2023-09-08T09:36:56;5.68;;;3.40;;
45254;SDS011;30989;52.078;21.014;2023-09-08T09:39:23;5.30;;;3.05;;
45254;SDS011;30989;52.078;21.014;2023-09-08T09:41:53;5.38;;;3.10;;
45254;SDS011;30989;52.078;21.014;2023-09-08T09:44:19;8.57;;;3.47;;
45254;SDS011;30989;52.078;21.014;2023-09-08T09:46:47;5.18;;;2.90;;
45254;SDS011;30989;52.078;21.014;2023-09-08T09:49:13;3.95;;;2.63;;
45254;SDS011;30989;52.078;21.014;2023-09-08T09:51:42;9.18;;;3.13;;
45254;SDS011;30989;52.078;21.014;2023-09-08T09:54:09;8.00;;;3.47;;
45254;SDS011;30989;52.078;21.014;2023-09-08T09:56:34;5.65;;;2.70;;
45254;SDS011;30989;52.078;21.014;2023-09-08T09:59:03;8.25;;;2.75;;
45254;SDS011;30989;52.078;21.014;2023-09-08T10:01:29;4.50;;;2.47;;
45254;SDS011;30989;52.078;21.014;2023-09-08T10:03:56;6.03;;;2.90;;
45254;SDS011;30989;52.078;21.014;2023-09-08T10:06:22;5.05;;;2.55;;
45254;SDS011;30989;52.078;21.014;2023-09-08T10:08:48;6.75;;;2.70;;
45254;SDS011;30989;52.078;21.014;2023-09-08T10:11:16;6.20;;;3.10;;
45254;SDS011;30989;52.078;21.014;2023-09-08T10:13:46;5.80;;;2.58;;
45254;SDS011;30989;52.078;21.014;2023-09-08T10:16:15;5.72;;;2.50;;
45254;SDS011;30989;52.078;21.014;2023-09-08T10:18:43;5.10;;;2.78;;
45254;SDS011;30989;52.078;21.014;2023-09-08T10:21:11;7.80;;;2.85;;
45254;SDS011;30989;52.078;21.014;2023-09-08T10:23:42;4.03;;;2.35;;
45254;SDS011;30989;52.078;21.014;2023-09-08T10:26:16;7.90;;;2.65;;
45254;SDS011;30989;52.078;21.014;2023-09-08T10:28:42;4.85;;;2.60;;
45254;SDS011;30989;52.078;21.014;2023-09-08T10:31:09;7.93;;;3.05;;
45254;SDS011;30989;52.078;21.014;2023-09-08T10:33:35;4.25;;;2.85;;
45254;SDS011;30989;52.078;21.014;2023-09-08T10:36:02;5.32;;;2.30;;
45254;SDS011;30989;52.078;21.014;2023-09-08T10:38:33;10.63;;;2.60;;
45254;SDS011;30989;52.078;21.014;2023-09-08T10:41:44;6.20;;;2.75;;
45254;SDS011;30989;52.078;21.014;2023-09-08T10:43:57;4.03;;;2.47;;
45254;SDS011;30989;52.078;21.014;2023-09-08T10:46:27;6.03;;;2.25;;
45254;SDS011;30989;52.078;21.014;2023-09-08T10:48:54;5.35;;;2.25;;
45254;SDS011;30989;52.078;21.014;2023-09-08T10:51:26;4.20;;;2.28;;
45254;SDS011;30989;52.078;21.014;2023-09-08T10:53:51;5.75;;;2.65;;
45254;SDS011;30989;52.078;21.014;2023-09-08T10:56:17;5.15;;;2.53;;
45254;SDS011;30989;52.078;21.014;2023-09-08T10:58:43;4.47;;;2.22;;
45254;SDS011;30989;52.078;21.014;2023-09-08T11:01:16;7.03;;;2.75;;
45254;SDS011;30989;52.078;21.014;2023-09-08T11:03:47;8.02;;;3.25;;
45254;SDS011;30989;52.078;21.014;2023-09-08T11:06:18;5.15;;;3.13;;
45254;SDS011;30989;52.078;21.014;2023-09-08T11:08:44;5.38;;;3.03;;
45254;SDS011;30989;52.078;21.014;2023-09-08T11:11:10;4.70;;;2.53;;
45254;SDS011;30989;52.078;21.014;2023-09-08T11:13:37;4.57;;;2.72;;
45254;SDS011;30989;52.078;21.014;2023-09-08T11:16:04;6.03;;;2.80;;
45254;SDS011;30989;52.078;21.014;2023-09-08T11:18:31;6.70;;;2.85;;
45254;SDS011;30989;52.078;21.014;2023-09-08T11:20:59;10.43;;;3.55;;
45254;SDS011;30989;52.078;21.014;2023-09-08T11:23:27;7.53;;;3.20;;
45254;SDS011;30989;52.078;21.014;2023-09-08T11:25:53;5.03;;;2.78;;
45254;SDS011;30989;52.078;21.014;2023-09-08T11:28:22;10.10;;;2.95;;
45254;SDS011;30989;52.078;21.014;2023-09-08T11:30:48;4.85;;;2.42;;
45254;SDS011;30989;52.078;21.014;2023-09-08T11:33:18;5.78;;;2.22;;
45254;SDS011;30989;52.078;21.014;2023-09-08T11:35:47;5.60;;;2.60;;
45254;SDS011;30989;52.078;21.014;2023-09-08T11:38:13;3.97;;;2.72;;
45254;SDS011;30989;52.078;21.014;2023-09-08T11:40:39;4.07;;;2.30;;
45254;SDS011;30989;52.078;21.014;2023-09-08T11:43:06;3.72;;;2.17;;
45254;SDS011;30989;52.078;21.014;2023-09-08T11:45:34;5.63;;;2.83;;
45254;SDS011;30989;52.078;21.014;2023-09-08T11:48:00;6.43;;;2.58;;
45254;SDS011;30989;52.078;21.014;2023-09-08T11:50:26;4.95;;;2.58;;
45254;SDS011;30989;52.078;21.014;2023-09-08T11:52:52;4.32;;;2.53;;
45254;SDS011;30989;52.078;21.014;2023-09-08T11:55:20;5.20;;;2.55;;
45254;SDS011;30989;52.078;21.014;2023-09-08T11:57:50;7.88;;;2.88;;
45254;SDS011;30989;52.078;21.014;2023-09-08T12:00:20;4.07;;;2.33;;
45254;SDS011;30989;52.078;21.014;2023-09-08T12:02:48;4.07;;;2.53;;
45254;SDS011;30989;52.078;21.014;2023-09-08T12:05:21;4.25;;;2.70;;
45254;SDS011;30989;52.078;21.014;2023-09-08T12:07:48;5.35;;;2.53;;
45254;SDS011;30989;52.078;21.014;2023-09-08T12:10:14;5.55;;;2.45;;
45254;SDS011;30989;52.078;21.014;2023-09-08T12:12:47;9.45;;;2.63;;
45254;SDS011;30989;52.078;21.014;2023-09-08T12:18:13;3.92;;;2.38;;
45254;SDS011;30989;52.078;21.014;2023-09-08T12:20:42;5.10;;;2.65;;
45254;SDS011;30989;52.078;21.014;2023-09-08T12:23:21;5.47;;;2.55;;
45254;SDS011;30989;52.078;21.014;2023-09-08T12:25:47;5.22;;;2.83;;
45254;SDS011;30989;52.078;21.014;2023-09-08T12:28:16;5.40;;;2.15;;
45254;SDS011;30989;52.078;21.014;2023-09-08T12:30:43;6.05;;;2.08;;
45254;SDS011;30989;52.078;21.014;2023-09-08T12:33:09;4.72;;;2.35;;
45254;SDS011;30989;52.078;21.014;2023-09-08T12:35:42;5.40;;;2.63;;
45254;SDS011;30989;52.078;21.014;2023-09-08T12:38:08;3.40;;;2.13;;
45254;SDS011;30989;52.078;21.014;2023-09-08T12:40:34;8.10;;;2.63;;
45254;SDS011;30989;52.078;21.014;2023-09-08T12:43:01;7.40;;;2.47;;
45254;SDS011;30989;52.078;21.014;2023-09-08T12:45:27;4.20;;;2.25;;
45254;SDS011;30989;52.078;21.014;2023-09-08T12:47:53;4.20;;;2.38;;
45254;SDS011;30989;52.078;21.014;2023-09-08T12:50:23;9.35;;;2.90;;
45254;SDS011;30989;52.078;21.014;2023-09-08T12:52:49;9.45;;;2.80;;
45254;SDS011;30989;52.078;21.014;2023-09-08T12:55:14;7.03;;;2.30;;
45254;SDS011;30989;52.078;21.014;2023-09-08T12:57:40;5.18;;;2.38;;
45254;SDS011;30989;52.078;21.014;2023-09-08T13:00:05;3.92;;;2.00;;
45254;SDS011;30989;52.078;21.014;2023-09-08T13:02:32;4.82;;;2.50;;
45254;SDS011;30989;52.078;21.014;2023-09-08T13:04:58;4.18;;;2.38;;
45254;SDS011;30989;52.078;21.014;2023-09-08T13:07:24;4.88;;;2.92;;
45254;SDS011;30989;52.078;21.014;2023-09-08T13:09:49;4.15;;;2.65;;
45254;SDS011;30989;52.078;21.014;2023-09-08T13:12:15;7.38;;;2.78;;
45254;SDS011;30989;52.078;21.014;2023-09-08T13:14:41;4.90;;;2.13;;
45254;SDS011;30989;52.078;21.014;2023-09-08T13:17:08;5.70;;;2.85;;
45254;SDS011;30989;52.078;21.014;2023-09-08T13:19:33;3.53;;;2.65;;
45254;SDS011;30989;52.078;21.014;2023-09-08T13:21:59;6.13;;;2.30;;
45254;SDS011;30989;52.078;21.014;2023-09-08T13:24:24;4.57;;;2.42;;
45254;SDS011;30989;52.078;21.014;2023-09-08T13:26:50;6.65;;;2.58;;
45254;SDS011;30989;52.078;21.014;2023-09-08T13:29:16;4.75;;;2.75;;
45254;SDS011;30989;52.078;21.014;2023-09-08T13:31:42;5.45;;;2.58;;
45254;SDS011;30989;52.078;21.014;2023-09-08T13:34:07;10.35;;;4.78;;
45254;SDS011;30989;52.078;21.014;2023-09-08T13:36:32;4.60;;;2.72;;
45254;SDS011;30989;52.078;21.014;2023-09-08T13:38:58;5.22;;;3.05;;
45254;SDS011;30989;52.078;21.014;2023-09-08T13:41:24;5.57;;;2.45;;
45254;SDS011;30989;52.078;21.014;2023-09-08T13:43:49;4.93;;;2.42;;
45254;SDS011;30989;52.078;21.014;2023-09-08T13:46:15;4.68;;;3.00;;
45254;SDS011;30989;52.078;21.014;2023-09-08T13:48:40;8.85;;;2.40;;
45254;SDS011;30989;52.078;21.014;2023-09-08T13:51:06;4.20;;;2.10;;
45254;SDS011;30989;52.078;21.014;2023-09-08T13:53:31;5.82;;;2.70;;
45254;SDS011;30989;52.078;21.014;2023-09-08T13:55:57;5.07;;;2.58;;
45254;SDS011;30989;52.078;21.014;2023-09-08T13:58:22;3.50;;;2.40;;
45254;SDS011;30989;52.078;21.014;2023-09-08T14:00:48;7.35;;;4.22;;
45254;SDS011;30989;52.078;21.014;2023-09-08T14:03:18;7.63;;;2.63;;
45254;SDS011;30989;52.078;21.014;2023-09-08T14:05:44;4.95;;;2.72;;
45254;SDS011;30989;52.078;21.014;2023-09-08T14:08:09;9.88;;;2.58;;
45254;SDS011;30989;52.078;21.014;2023-09-08T14:10:35;4.35;;;2.33;;
45254;SDS011;30989;52.078;21.014;2023-09-08T14:13:01;7.57;;;3.13;;
45254;SDS011;30989;52.078;21.014;2023-09-08T14:15:26;8.75;;;2.70;;
45254;SDS011;30989;52.078;21.014;2023-09-08T14:17:52;7.47;;;2.80;;
45254;SDS011;30989;52.078;21.014;2023-09-08T14:20:18;10.07;;;3.08;;
45254;SDS011;30989;52.078;21.014;2023-09-08T14:22:43;6.72;;;3.22;;
45254;SDS011;30989;52.078;21.014;2023-09-08T14:25:09;4.57;;;2.75;;
45254;SDS011;30989;52.078;21.014;2023-09-08T14:27:35;5.45;;;2.88;;
45254;SDS011;30989;52.078;21.014;2023-09-08T14:30:02;4.97;;;2.60;;